Time;durP1;ratioP1;P1;durP2;ratioP2;P2;SDS_P1;SDS_P2;PMS_P1;PMS_P2;Temp;Humidity;BMP_temperature;BMP_pressure;BME280_temperature;BME280_humidity;BME280_pressure;Samples;Min_cycle;Max_cycle;Signal;HPM_P1;HPM_P2
2023/11/06 00:01:31;;;;;;;5.95;0.63;;;;;;;6.47;62.24;98820.25;4999274;28;20121;-76
2023/11/06 00:03:56;;;;;;;7.78;1.17;;;;;;;6.36;62.31;98827.81;4997301;28;20110;-75
2023/11/06 00:06:22;;;;;;;5.10;0.90;;;;;;;6.35;62.43;98839.13;5003977;28;20046;-77
2023/11/06 00:08:47;;;;;;;8.00;0.75;;;;;;;6.18;62.48;98836.56;4986667;28;20516;-70
2023/11/06 00:11:13;;;;;;;12.52;1.00;;;;;;;5.96;63.19;98853.28;4998255;28;20104;-69
2023/11/06 00:13:38;;;;;;;6.07;0.73;;;;;;;6.29;61.90;98847.22;4995060;28;20033;-69
2023/11/06 00:16:04;;;;;;;4.68;0.77;;;;;;;5.94;62.98;98860.28;5004119;28;20038;-69
2023/11/06 00:18:30;;;;;;;4.50;0.50;;;;;;;5.90;62.67;98858.78;4999417;28;20400;-70
2023/11/06 00:20:58;;;;;;;9.18;0.47;;;;;;;6.03;62.20;98864.16;4999910;28;20048;-72
2023/11/06 00:23:26;;;;;;;9.30;0.75;;;;;;;6.14;62.15;98868.78;5000152;28;20033;-72
2023/11/06 00:25:51;;;;;;;9.63;0.50;;;;;;;6.65;60.26;98872.91;4988074;28;20050;-71
2023/11/06 00:28:16;;;;;;;6.80;1.35;;;;;;;6.61;60.18;98878.34;4998254;28;20612;-71
2023/11/06 00:30:44;;;;;;;8.20;0.50;;;;;;;6.37;60.30;98885.72;4996067;28;20077;-72
2023/11/06 00:33:10;;;;;;;8.48;0.70;;;;;;;6.32;60.79;98890.31;5000512;28;20539;-72
2023/11/06 00:35:35;;;;;;;11.50;0.70;;;;;;;6.25;61.00;98894.97;4984734;28;20128;-73
2023/11/06 00:38:01;;;;;;;8.02;0.70;;;;;;;6.27;61.01;98898.34;5010421;28;20041;-73
2023/11/06 00:40:27;;;;;;;8.90;0.75;;;;;;;6.08;61.36;98909.69;5005755;28;20187;-73
2023/11/06 00:42:53;;;;;;;8.73;1.02;;;;;;;6.29;60.70;98914.69;4996770;28;20042;-70
2023/11/06 00:45:18;;;;;;;12.77;1.38;;;;;;;5.80;62.46;98925.00;4995472;28;20123;-70
2023/11/06 00:47:44;;;;;;;5.75;0.75;;;;;;;6.08;60.98;98920.06;4998296;28;20038;-68
2023/11/06 00:50:10;;;;;;;5.55;1.02;;;;;;;6.16;60.88;98931.78;4996756;28;20045;-69
2023/11/06 00:52:36;;;;;;;9.95;0.57;;;;;;;5.76;62.53;98939.03;5000309;28;20606;-69
2023/11/06 00:55:01;;;;;;;7.20;0.50;;;;;;;6.36;60.54;98934.19;5000836;28;20045;-68
2023/11/06 00:57:27;;;;;;;4.80;0.52;;;;;;;5.63;62.44;98944.00;4989162;28;20030;-71
2023/11/06 00:59:52;;;;;;;5.28;0.77;;;;;;;6.13;60.56;98948.34;4988765;28;20088;-71
2023/11/06 01:02:18;;;;;;;6.60;1.13;;;;;;;6.19;60.66;98952.38;4981525;28;20124;-69
2023/11/06 01:04:43;;;;;;;3.60;0.88;;;;;;;6.04;61.04;98954.03;4998416;28;20388;-71
2023/11/06 01:07:09;;;;;;;7.18;0.40;;;;;;;5.52;62.43;98956.66;5012816;28;20378;-80
2023/11/06 01:09:34;;;;;;;3.42;0.40;;;;;;;5.65;62.05;98962.91;4998860;28;20181;-80
2023/11/06 01:12:00;;;;;;;6.45;0.47;;;;;;;5.76;61.43;98965.78;5008364;28;20049;-81
2023/11/06 01:14:25;;;;;;;4.57;0.80;;;;;;;5.48;62.29;98961.16;5004467;28;20025;-81
2023/11/06 01:16:52;;;;;;;5.90;0.73;;;;;;;5.47;62.49;98967.25;4995570;28;20045;-77
2023/11/06 01:19:17;;;;;;;10.38;1.33;;;;;;;5.12;63.48;98968.94;4991186;28;20033;-77
2023/11/06 01:21:43;;;;;;;1.85;0.52;;;;;;;5.29;63.08;98981.94;5004326;28;20068;-76
2023/11/06 01:24:11;;;;;;;7.90;1.33;;;;;;;5.57;62.30;98981.44;4989825;28;20030;-76
2023/11/06 01:26:36;;;;;;;2.88;1.25;;;;;;;5.36;62.81;98988.50;5004819;28;20133;-75
2023/11/06 01:29:02;;;;;;;6.30;0.57;;;;;;;5.05;63.98;98995.13;5000719;28;20132;-76
2023/11/06 01:31:30;;;;;;;7.68;0.80;;;;;;;5.30;63.73;99000.91;4993868;28;20128;-76
2023/11/06 01:33:58;;;;;;;7.78;0.85;;;;;;;5.17;64.11;98998.91;5019177;28;20080;-77
2023/11/06 01:36:23;;;;;;;3.95;0.73;;;;;;;5.43;63.04;98999.38;4999551;28;20776;-76
2023/11/06 01:38:49;;;;;;;7.75;0.50;;;;;;;4.79;64.93;99014.44;4989306;28;20030;-78
2023/11/06 01:41:14;;;;;;;5.43;0.60;;;;;;;4.86;64.82;99024.53;5004632;28;20049;-78
2023/11/06 01:43:40;;;;;;;6.78;0.57;;;;;;;5.17;63.49;99021.38;5008633;28;20041;-77
2023/11/06 01:46:06;;;;;;;5.38;1.38;;;;;;;5.14;63.92;99018.91;5000711;28;20091;-77
2023/11/06 01:48:33;;;;;;;4.82;0.90;;;;;;;4.94;64.83;99033.63;5012804;28;20045;-75
2023/11/06 01:50:58;;;;;;;3.17;0.70;;;;;;;5.13;63.90;99025.03;4987569;28;20033;-75
2023/11/06 01:53:28;;;;;;;6.32;1.30;;;;;;;5.02;64.12;99033.28;4987045;28;20029;-75
2023/11/06 01:55:54;;;;;;;2.40;1.20;;;;;;;5.03;64.09;99029.78;5008273;28;20109;-78
2023/11/06 01:58:20;;;;;;;7.55;1.00;;;;;;;4.88;64.38;99033.06;5004907;28;20746;-77
2023/11/06 02:00:47;;;;;;;6.15;1.02;;;;;;;5.07;63.76;99033.06;4989432;28;20033;-70
2023/11/06 02:03:13;;;;;;;5.05;0.80;;;;;;;4.98;63.68;99026.56;5016120;28;20065;-69
2023/11/06 02:05:39;;;;;;;6.20;0.75;;;;;;;5.28;63.27;99044.16;5012180;28;20192;-68
2023/11/06 02:08:05;;;;;;;3.45;1.08;;;;;;;5.13;63.65;99049.16;4983063;28;20037;-69
2023/11/06 02:10:31;;;;;;;8.80;1.45;;;;;;;4.98;63.92;99050.69;5000724;28;20042;-66
2023/11/06 02:12:58;;;;;;;5.15;0.70;;;;;;;5.23;62.91;99058.19;4984459;28;20042;-67
2023/11/06 02:15:27;;;;;;;7.25;1.60;;;;;;;5.36;62.50;99060.19;5001289;28;20103;-66
2023/11/06 02:17:55;;;;;;;5.80;1.83;;;;;;;4.50;65.02;99074.41;4988739;28;20060;-67
2023/11/06 02:20:21;;;;;;;6.05;1.27;;;;;;;4.93;64.03;99080.31;5001946;28;20053;-70
2023/11/06 02:22:49;;;;;;;1.27;1.02;;;;;;;4.72;64.50;99085.50;4996698;28;20064;-66
2023/11/06 02:25:15;;;;;;;4.40;1.65;;;;;;;4.66;64.88;99078.00;4997178;28;20599;-70
2023/11/06 02:27:41;;;;;;;10.45;1.63;;;;;;;4.80;64.41;99075.63;5000849;28;20045;-68
2023/11/06 02:30:08;;;;;;;3.35;1.25;;;;;;;4.42;65.71;99083.34;4994972;28;20040;-69
2023/11/06 02:32:34;;;;;;;9.35;1.75;;;;;;;4.22;66.58;99091.09;5010581;28;20420;-67
2023/11/06 02:35:00;;;;;;;9.88;1.90;;;;;;;4.67;65.19;99092.63;4996996;28;20484;-67
2023/11/06 02:37:25;;;;;;;17.65;2.30;;;;;;;4.64;65.18;99098.78;4998602;28;20030;-67
2023/11/06 02:39:53;;;;;;;15.23;2.20;;;;;;;4.88;64.11;99095.19;4996906;28;20113;-70
2023/11/06 02:42:20;;;;;;;6.40;1.52;;;;;;;4.76;64.65;99094.81;5007874;28;20025;-68
2023/11/06 02:44:46;;;;;;;4.28;1.33;;;;;;;4.63;64.81;99109.19;4998698;28;20126;-66
2023/11/06 02:47:14;;;;;;;6.22;1.10;;;;;;;4.21;65.69;99113.56;5002191;28;20053;-68
2023/11/06 02:49:42;;;;;;;5.20;1.02;;;;;;;4.78;64.72;99110.28;4999245;28;20025;-66
2023/11/06 02:52:07;;;;;;;4.13;1.73;;;;;;;4.46;66.06;99109.09;4995206;28;20045;-70
2023/11/06 02:54:33;;;;;;;3.85;1.20;;;;;;;4.49;65.37;99129.66;5001049;28;20046;-69
2023/11/06 02:56:59;;;;;;;5.00;1.10;;;;;;;4.51;65.49;99133.84;5003883;28;20037;-72
2023/11/06 02:59:24;;;;;;;3.97;1.42;;;;;;;4.93;64.25;99129.50;4998799;28;20100;-69
2023/11/06 03:01:51;;;;;;;4.45;1.30;;;;;;;4.99;63.81;99131.81;4998588;28;20041;-69
2023/11/06 03:04:18;;;;;;;5.15;1.05;;;;;;;5.02;64.18;99139.44;5004018;28;20046;-69
2023/11/06 03:06:45;;;;;;;4.72;1.23;;;;;;;4.84;64.68;99141.06;4998951;28;20046;-70
2023/11/06 03:09:12;;;;;;;4.53;1.08;;;;;;;5.13;63.42;99150.16;4981225;28;20044;-69
2023/11/06 03:11:38;;;;;;;3.30;0.70;;;;;;;4.99;63.82;99157.72;5008459;28;20041;-70
2023/11/06 03:14:05;;;;;;;5.25;1.23;;;;;;;4.96;64.07;99165.59;4980679;28;20310;-69
2023/11/06 03:16:34;;;;;;;8.93;1.35;;;;;;;4.72;64.74;99162.28;5007269;28;20026;-68
2023/11/06 03:19:00;;;;;;;4.70;1.35;;;;;;;5.11;64.62;99158.91;4994887;28;20090;-70
2023/11/06 03:21:26;;;;;;;7.90;1.42;;;;;;;4.81;64.80;99172.25;5009305;28;20040;-70
2023/11/06 03:23:51;;;;;;;2.45;0.95;;;;;;;4.93;64.81;99170.94;4998441;28;20049;-70
2023/11/06 03:26:17;;;;;;;5.28;1.15;;;;;;;5.02;64.48;99170.53;4990880;28;20496;-72
2023/11/06 03:28:43;;;;;;;2.65;1.38;;;;;;;4.98;64.23;99180.16;5000968;28;20380;-70
2023/11/06 03:31:10;;;;;;;5.70;1.48;;;;;;;5.12;63.99;99187.31;4988937;28;21359;-69
2023/11/06 03:33:35;;;;;;;2.53;1.23;;;;;;;4.95;64.60;99188.06;5000245;28;20045;-71
2023/11/06 03:36:03;;;;;;;8.13;1.85;;;;;;;5.22;63.77;99193.78;4997701;28;20076;-69
2023/11/06 03:38:28;;;;;;;3.22;1.23;;;;;;;4.98;64.54;99184.50;5004984;28;20061;-67
2023/11/06 03:40:55;;;;;;;7.07;1.25;;;;;;;4.77;65.40;99192.25;5011733;28;20057;-67
2023/11/06 03:43:20;;;;;;;5.57;1.83;;;;;;;5.11;64.28;99201.19;4986255;28;20049;-70
2023/11/06 03:45:46;;;;;;;7.85;1.50;;;;;;;4.85;65.13;99199.69;5003658;28;20544;-77
2023/11/06 03:48:12;;;;;;;4.47;1.40;;;;;;;5.44;63.07;99206.63;4987659;28;20511;-76
2023/11/06 03:50:42;;;;;;;2.88;1.42;;;;;;;5.19;64.11;99209.47;5016332;28;20100;-77
2023/11/06 03:53:13;;;;;;;5.80;1.25;;;;;;;4.88;65.20;99214.28;5002980;28;20086;-78
2023/11/06 03:55:39;;;;;;;5.60;1.80;;;;;;;4.81;65.30;99224.88;5024830;28;20045;-79
2023/11/06 03:58:04;;;;;;;3.08;1.95;;;;;;;5.49;63.94;99221.94;4992003;28;20034;-78
2023/11/06 04:00:30;;;;;;;5.30;1.95;;;;;;;5.92;62.57;99230.34;5006473;28;20029;-76
2023/11/06 04:02:56;;;;;;;5.35;1.85;;;;;;;5.62;63.85;99237.78;5004074;28;20068;-77
2023/11/06 04:05:21;;;;;;;4.30;2.15;;;;;;;5.97;62.59;99236.16;5012198;28;20052;-77
2023/11/06 04:07:49;;;;;;;4.13;2.13;;;;;;;6.26;61.47;99229.59;5004158;28;20045;-78
2023/11/06 04:10:15;;;;;;;4.40;2.20;;;;;;;5.99;62.24;99236.91;4987842;28;20102;-70
2023/11/06 04:12:41;;;;;;;6.10;2.80;;;;;;;6.46;60.70;99244.22;5003915;28;20112;-70
2023/11/06 04:15:07;;;;;;;5.65;2.63;;;;;;;5.89;63.06;99248.66;4998582;28;20117;-70
2023/11/06 04:17:33;;;;;;;5.72;2.42;;;;;;;6.33;61.29;99255.25;4999210;28;20037;-72
2023/11/06 04:19:58;;;;;;;6.32;2.35;;;;;;;6.52;61.04;99260.41;4999683;28;20044;-70
2023/11/06 04:22:24;;;;;;;5.50;2.40;;;;;;;6.60;60.71;99261.72;4995560;28;20581;-65
2023/11/06 04:24:49;;;;;;;5.65;2.58;;;;;;;6.49;60.94;99271.78;5000726;28;20036;-65
2023/11/06 04:27:15;;;;;;;3.72;1.85;;;;;;;6.36;61.61;99274.13;5001851;28;20127;-66
2023/11/06 04:29:40;;;;;;;6.95;2.35;;;;;;;6.56;60.81;99277.53;5005446;28;20587;-68
2023/11/06 04:32:06;;;;;;;3.45;2.33;;;;;;;6.75;60.08;99280.88;4989094;28;20037;-66
2023/11/06 04:34:31;;;;;;;3.78;2.88;;;;;;;6.45;61.03;99278.03;4998889;28;20114;-66
2023/11/06 04:36:57;;;;;;;6.50;2.15;;;;;;;6.68;60.78;99275.13;4997256;28;20068;-63
2023/11/06 04:39:22;;;;;;;7.45;2.60;;;;;;;6.42;61.48;99276.44;4996796;28;20693;-69
2023/11/06 04:41:50;;;;;;;4.65;2.88;;;;;;;6.44;61.23;99282.41;5005078;28;20057;-70
2023/11/06 04:44:16;;;;;;;4.35;2.78;;;;;;;6.29;61.79;99270.97;4989481;28;20133;-70
2023/11/06 04:46:44;;;;;;;6.45;3.53;;;;;;;6.19;62.58;99271.47;5003073;28;20601;-70
2023/11/06 04:49:09;;;;;;;6.95;3.65;;;;;;;6.21;62.75;99283.44;4997483;28;20033;-68
2023/11/06 04:51:35;;;;;;;7.68;3.95;;;;;;;6.34;61.79;99275.94;4986839;28;20171;-70
2023/11/06 04:54:00;;;;;;;7.78;3.40;;;;;;;6.05;62.42;99288.50;4998281;28;20419;-71
2023/11/06 04:56:28;;;;;;;10.35;2.65;;;;;;;5.79;64.22;99291.44;4991808;28;20584;-65
2023/11/06 04:58:54;;;;;;;3.30;2.58;;;;;;;5.91;63.47;99285.72;4988058;28;20564;-64
2023/11/06 05:01:19;;;;;;;4.95;3.03;;;;;;;6.00;63.51;99282.69;5008217;28;20504;-63
2023/11/06 05:03:45;;;;;;;3.80;2.53;;;;;;;5.96;63.37;99299.31;5001539;28;20331;-65
2023/11/06 05:06:10;;;;;;;4.32;2.50;;;;;;;5.49;64.75;99291.09;4999041;28;20535;-66
2023/11/06 05:08:36;;;;;;;6.13;2.35;;;;;;;5.16;65.72;99292.47;5001105;28;20057;-63
2023/11/06 05:11:02;;;;;;;8.20;2.30;;;;;;;5.48;64.19;99305.81;5000808;28;20041;-66
2023/11/06 05:13:27;;;;;;;5.32;3.15;;;;;;;5.18;65.47;99293.25;5007331;28;20053;-66
2023/11/06 05:15:53;;;;;;;8.80;3.08;;;;;;;5.39;64.99;99303.59;5004219;28;20022;-72
2023/11/06 05:18:19;;;;;;;7.47;3.50;;;;;;;5.22;65.46;99301.75;4999532;28;20077;-71
2023/11/06 05:20:44;;;;;;;10.88;3.25;;;;;;;4.98;65.72;99304.44;5001302;28;21486;-72
2023/11/06 05:23:10;;;;;;;7.35;3.25;;;;;;;5.73;63.74;99302.94;5002064;28;20449;-71
2023/11/06 05:25:37;;;;;;;4.75;2.50;;;;;;;5.77;63.82;99298.44;5001359;28;20057;-71
2023/11/06 05:28:03;;;;;;;7.10;3.13;;;;;;;5.33;64.77;99303.88;4987294;28;20049;-74
2023/11/06 05:30:29;;;;;;;5.55;2.67;;;;;;;5.82;63.56;99319.84;4992882;28;20042;-67
2023/11/06 05:32:57;;;;;;;4.47;3.10;;;;;;;5.88;62.98;99327.31;4992271;28;20103;-63
2023/11/06 05:35:23;;;;;;;8.73;3.92;;;;;;;5.67;63.75;99319.59;5011642;28;20451;-66
2023/11/06 05:37:48;;;;;;;4.20;3.20;;;;;;;6.21;62.46;99324.13;5001031;28;20041;-65
2023/11/06 05:40:14;;;;;;;8.30;4.13;;;;;;;6.02;63.12;99330.16;5001742;28;20033;-66
2023/11/06 05:42:40;;;;;;;6.03;3.63;;;;;;;6.06;62.59;99326.50;4999433;28;20061;-66
2023/11/06 05:45:09;;;;;;;10.27;3.53;;;;;;;6.18;62.75;99338.06;4999953;28;20328;-66
2023/11/06 05:47:35;;;;;;;7.15;3.70;;;;;;;5.88;63.32;99340.28;4999901;28;20843;-66
2023/11/06 05:50:00;;;;;;;7.93;3.72;;;;;;;5.82;63.15;99335.41;4998635;28;20082;-65
2023/11/06 05:52:26;;;;;;;8.32;3.90;;;;;;;6.03;62.92;99334.41;5000322;28;20069;-65
2023/11/06 05:54:52;;;;;;;10.05;3.95;;;;;;;6.04;62.75;99343.91;5002109;28;20408;-65
2023/11/06 05:57:18;;;;;;;10.52;3.17;;;;;;;5.87;62.72;99351.59;4998932;28;20355;-67
2023/11/06 05:59:43;;;;;;;10.23;3.83;;;;;;;5.69;63.94;99342.88;5001393;28;20148;-67
2023/11/06 06:02:09;;;;;;;7.28;4.03;;;;;;;5.79;63.36;99344.16;4999138;28;20045;-65
2023/11/06 06:04:35;;;;;;;9.73;4.50;;;;;;;5.31;65.53;99341.97;5002620;28;20059;-65
2023/11/06 06:07:00;;;;;;;8.60;4.10;;;;;;;5.69;63.78;99358.44;4997190;28;20073;-65
2023/11/06 06:09:26;;;;;;;7.32;4.32;;;;;;;5.32;64.81;99360.00;5002597;28;20179;-66
2023/11/06 06:11:52;;;;;;;4.88;3.92;;;;;;;5.33;65.73;99360.88;5001105;28;20114;-66
2023/11/06 06:14:18;;;;;;;7.30;4.47;;;;;;;5.61;65.12;99370.88;4996914;28;20045;-66
2023/11/06 06:16:48;;;;;;;10.90;5.38;;;;;;;5.72;64.65;99373.00;5001940;28;20116;-65
2023/11/06 06:19:14;;;;;;;11.50;5.00;;;;;;;6.09;63.28;99378.25;5002599;28;20535;-67
2023/11/06 06:21:39;;;;;;;18.48;5.13;;;;;;;6.02;63.66;99382.03;5000544;28;20038;-69
2023/11/06 06:24:08;;;;;;;11.15;5.85;;;;;;;6.02;63.97;99382.03;5003803;28;20052;-66
2023/11/06 06:26:34;;;;;;;6.55;4.80;;;;;;;5.75;64.95;99383.22;4998681;28;20037;-66
2023/11/06 06:29:06;;;;;;;10.77;4.50;;;;;;;5.50;65.55;99394.66;4996597;28;20045;-65
2023/11/06 06:31:31;;;;;;;11.85;4.63;;;;;;;5.75;64.64;99403.97;5001001;28;20040;-66
2023/11/06 06:33:58;;;;;;;8.00;4.28;;;;;;;5.57;65.72;99390.06;4999793;28;20037;-69
2023/11/06 06:36:24;;;;;;;12.73;5.05;;;;;;;5.55;65.11;99392.72;4995100;28;20037;-66
2023/11/06 06:38:50;;;;;;;7.30;4.95;;;;;;;5.78;64.32;99393.50;4999266;28;20099;-67
2023/11/06 06:41:16;;;;;;;7.50;4.47;;;;;;;5.00;66.94;99401.03;4995479;28;20041;-67
2023/11/06 06:43:44;;;;;;;8.05;5.15;;;;;;;5.87;63.96;99404.28;4999241;28;20030;-71
2023/11/06 06:46:10;;;;;;;8.23;5.32;;;;;;;5.67;64.29;99402.56;5003838;28;20045;-71
2023/11/06 06:48:35;;;;;;;7.22;4.43;;;;;;;5.94;63.68;99402.28;4990038;28;20064;-70
2023/11/06 06:51:01;;;;;;;8.82;5.03;;;;;;;5.33;65.43;99417.88;5005887;28;20044;-65
2023/11/06 06:53:27;;;;;;;10.38;4.72;;;;;;;5.25;65.12;99411.22;4997027;28;20033;-72
2023/11/06 06:55:52;;;;;;;9.80;4.68;;;;;;;5.76;64.04;99416.03;4984148;28;20021;-69
2023/11/06 06:58:21;;;;;;;8.70;5.22;;;;;;;6.08;62.96;99423.25;4999289;28;20504;-71
2023/11/06 07:00:49;;;;;;;10.88;4.82;;;;;;;5.64;64.35;99423.44;4997686;28;20034;-71
2023/11/06 07:03:15;;;;;;;7.00;4.90;;;;;;;5.72;64.33;99427.44;4996507;28;20041;-70
2023/11/06 07:05:41;;;;;;;6.32;4.05;;;;;;;5.53;65.01;99430.84;5006309;28;20037;-70
2023/11/06 07:08:07;;;;;;;9.63;4.68;;;;;;;5.38;65.48;99431.47;4994280;28;20038;-71
2023/11/06 07:10:35;;;;;;;9.70;4.82;;;;;;;5.69;65.02;99440.56;5000294;28;20428;-76
2023/11/06 07:13:00;;;;;;;14.95;4.97;;;;;;;5.88;64.04;99441.44;5004127;28;20029;-72
2023/11/06 07:15:27;;;;;;;11.02;5.40;;;;;;;5.95;64.04;99447.19;4995526;28;20052;-72
2023/11/06 07:18:01;;;;;;;14.30;5.47;;;;;;;5.55;66.06;99448.91;4978851;28;20030;-71
2023/11/06 07:20:27;;;;;;;11.05;5.88;;;;;;;6.02;64.19;99448.63;4997455;28;20646;-75
2023/11/06 07:22:54;;;;;;;8.02;5.72;;;;;;;5.74;64.77;99459.34;4997839;28;20045;-74
2023/11/06 07:25:20;;;;;;;13.98;5.88;;;;;;;5.77;64.90;99461.78;4998893;28;20034;-72
2023/11/06 07:27:49;;;;;;;15.15;7.07;;;;;;;5.70;65.15;99476.75;4989461;28;20049;-78
2023/11/06 07:30:14;;;;;;;15.57;6.32;;;;;;;5.83;64.99;99472.75;5004868;28;20034;-79
2023/11/06 07:32:41;;;;;;;10.90;6.35;;;;;;;5.70;64.68;99478.50;5018681;28;20690;-78
2023/11/06 07:35:09;;;;;;;12.05;6.45;;;;;;;6.18;63.63;99479.94;5011732;28;20128;-78
2023/11/06 07:37:35;;;;;;;12.40;5.65;;;;;;;5.91;64.53;99484.56;4995973;28;20072;-76
2023/11/06 07:40:01;;;;;;;14.82;6.43;;;;;;;5.48;65.14;99492.38;5006573;28;20124;-75
2023/11/06 07:42:27;;;;;;;13.82;6.00;;;;;;;6.02;63.68;99485.78;4998479;28;20503;-75
2023/11/06 07:44:55;;;;;;;12.45;6.82;;;;;;;5.73;65.35;99492.22;5000090;28;20460;-68
2023/11/06 07:47:20;;;;;;;14.13;6.45;;;;;;;5.74;64.65;99501.66;5000533;28;20035;-68
2023/11/06 07:49:46;;;;;;;11.38;6.10;;;;;;;5.91;64.54;99508.75;4997161;28;20040;-67
2023/11/06 07:52:11;;;;;;;16.23;6.88;;;;;;;5.77;65.40;99511.06;5001086;28;20396;-65
2023/11/06 07:54:41;;;;;;;12.82;6.63;;;;;;;6.23;63.70;99503.91;4997267;28;20053;-66
2023/11/06 07:57:06;;;;;;;14.00;6.25;;;;;;;5.93;64.30;99514.69;4995176;28;20030;-67
2023/11/06 07:59:32;;;;;;;13.55;6.95;;;;;;;6.23;63.33;99506.50;4998407;28;20384;-68
2023/11/06 08:02:00;;;;;;;16.33;7.35;;;;;;;5.73;64.34;99518.13;4998142;28;20524;-66
2023/11/06 08:04:28;;;;;;;10.77;6.28;;;;;;;5.98;64.13;99515.34;4999518;28;20047;-66
2023/11/06 08:06:54;;;;;;;16.85;6.22;;;;;;;6.31;63.08;99514.84;5000339;28;20045;-68
2023/11/06 08:09:19;;;;;;;10.93;6.00;;;;;;;6.44;61.92;99518.56;4994638;28;20048;-66
2023/11/06 08:11:46;;;;;;;8.75;4.60;;;;;;;6.53;61.75;99516.47;4998683;28;20033;-68
2023/11/06 08:14:14;;;;;;;13.10;5.50;;;;;;;6.56;61.91;99518.94;4995400;28;20454;-66
2023/11/06 08:16:39;;;;;;;11.30;4.47;;;;;;;6.76;60.82;99521.47;4999023;28;20037;-65
2023/11/06 08:19:07;;;;;;;10.32;4.05;;;;;;;6.90;61.06;99523.44;5003349;28;20041;-65
2023/11/06 08:21:33;;;;;;;8.82;4.43;;;;;;;7.27;59.24;99521.72;5009249;28;20058;-69
2023/11/06 08:24:00;;;;;;;7.78;4.22;;;;;;;7.21;59.26;99530.63;5003801;28;20030;-67
2023/11/06 08:26:25;;;;;;;7.32;4.78;;;;;;;6.80;60.14;99524.78;4998270;28;20507;-66
2023/11/06 08:28:53;;;;;;;9.55;4.85;;;;;;;7.45;58.54;99525.19;5000584;28;20034;-69
2023/11/06 08:31:20;;;;;;;8.43;4.40;;;;;;;7.92;57.68;99535.03;4997164;28;20038;-70
2023/11/06 08:33:48;;;;;;;12.20;3.88;;;;;;;8.73;55.07;99535.19;5000962;28;20042;-68
2023/11/06 08:36:15;;;;;;;10.98;4.25;;;;;;;8.83;54.52;99536.41;4999714;28;20171;-69
2023/11/06 08:38:40;;;;;;;7.25;3.42;;;;;;;9.22;53.45;99542.94;5002444;28;20034;-69
2023/11/06 08:41:09;;;;;;;3.35;2.92;;;;;;;8.60;54.01;99549.75;5001448;28;20052;-69
2023/11/06 08:43:35;;;;;;;8.95;3.03;;;;;;;8.43;54.78;99548.06;5002237;28;20123;-70
2023/11/06 08:46:02;;;;;;;5.78;2.75;;;;;;;7.41;56.91;99541.84;5008613;28;20042;-69
2023/11/06 08:48:28;;;;;;;6.03;2.78;;;;;;;8.03;56.47;99545.75;5010813;28;20041;-67
2023/11/06 08:50:54;;;;;;;4.78;2.42;;;;;;;8.33;55.18;99556.31;5000361;28;20045;-69
2023/11/06 08:53:20;;;;;;;7.75;2.70;;;;;;;8.49;54.70;99558.97;4987522;28;20042;-70
2023/11/06 08:55:48;;;;;;;7.32;1.90;;;;;;;7.36;55.73;99559.44;5000525;28;20112;-68
2023/11/06 08:58:16;;;;;;;2.55;1.98;;;;;;;7.77;55.80;99564.41;4995490;28;20552;-69
2023/11/06 09:00:43;;;;;;;3.70;1.58;;;;;;;8.01;54.85;99557.97;5005759;28;20184;-67
2023/11/06 09:03:09;;;;;;;3.55;2.03;;;;;;;8.93;53.38;99561.03;4995688;28;20605;-69
2023/11/06 09:05:36;;;;;;;3.28;1.73;;;;;;;8.56;54.17;99575.97;5002476;28;20180;-66
2023/11/06 09:08:01;;;;;;;4.53;1.63;;;;;;;8.94;53.24;99573.13;4999743;28;20728;-66
2023/11/06 09:10:28;;;;;;;7.80;1.85;;;;;;;8.53;53.58;99578.72;4999940;28;20060;-69
2023/11/06 09:12:54;;;;;;;4.22;2.00;;;;;;;8.04;54.84;99589.03;4981766;28;20120;-69
2023/11/06 09:15:19;;;;;;;4.20;1.67;;;;;;;8.26;54.29;99567.97;5004835;28;20712;-67
2023/11/06 09:17:45;;;;;;;4.65;1.80;;;;;;;8.74;54.23;99571.59;5002104;28;20050;-67
2023/11/06 09:20:13;;;;;;;4.45;1.30;;;;;;;8.76;53.82;99576.72;4996349;28;20215;-67
2023/11/06 09:22:40;;;;;;;5.72;1.23;;;;;;;9.02;53.57;99577.09;4989073;28;20165;-67
2023/11/06 09:25:06;;;;;;;2.85;1.60;;;;;;;8.45;53.53;99578.31;5004801;28;20426;-67
2023/11/06 09:27:34;;;;;;;4.50;1.35;;;;;;;7.84;55.47;99586.59;5009808;28;20049;-66
2023/11/06 09:30:03;;;;;;;2.15;1.52;;;;;;;7.26;56.53;99601.41;5000981;28;20057;-66
2023/11/06 09:32:28;;;;;;;4.03;1.45;;;;;;;7.13;57.03;99608.09;5003854;28;20047;-68
2023/11/06 09:34:55;;;;;;;4.15;1.90;;;;;;;6.67;58.10;99615.38;5003543;28;20026;-66
2023/11/06 09:37:21;;;;;;;2.95;1.27;;;;;;;6.75;58.67;99615.84;4994899;28;20033;-68
2023/11/06 09:39:46;;;;;;;3.83;1.15;;;;;;;7.11;57.42;99609.94;5004288;28;20041;-68
2023/11/06 09:42:12;;;;;;;2.28;0.85;;;;;;;8.00;55.16;99612.69;4996792;28;20643;-67
2023/11/06 09:44:38;;;;;;;5.00;1.08;;;;;;;7.93;55.37;99623.38;5005116;28;20041;-66
2023/11/06 09:47:07;;;;;;;3.72;0.85;;;;;;;8.86;53.34;99621.38;4997377;28;20041;-68
2023/11/06 09:49:43;;;;;;;2.85;0.70;;;;;;;9.26;52.79;99622.69;4994403;28;20044;-68
2023/11/06 09:52:09;;;;;;;2.63;0.50;;;;;;;10.00;50.79;99624.66;4977318;28;20037;-66
2023/11/06 09:54:36;;;;;;;2.22;0.55;;;;;;;8.64;52.14;99638.09;5008488;28;20054;-68
2023/11/06 09:57:03;;;;;;;2.08;0.75;;;;;;;7.76;54.55;99640.72;4996362;28;20499;-67
2023/11/06 09:59:29;;;;;;;1.40;0.32;;;;;;;7.88;53.51;99645.38;4982014;28;20058;-67
2023/11/06 10:01:54;;;;;;;2.40;0.82;;;;;;;8.06;53.75;99662.69;4996812;28;20074;-68
2023/11/06 10:04:21;;;;;;;1.38;0.22;;;;;;;6.98;56.14;99663.38;5001588;28;20135;-67
2023/11/06 10:06:51;;;;;;;0.80;0.30;;;;;;;7.11;56.35;99664.50;5000187;28;20207;-68
2023/11/06 10:09:24;;;;;;;0.80;0.20;;;;;;;7.07;56.81;99668.16;4991488;28;20052;-68
2023/11/06 10:11:51;;;;;;;0.82;0.30;;;;;;;7.04;57.19;99670.88;4994289;28;20033;-69
2023/11/06 10:14:16;;;;;;;1.73;0.63;;;;;;;6.61;58.37;99677.94;4980305;28;20059;-68
2023/11/06 10:16:42;;;;;;;1.42;0.30;;;;;;;6.99;57.49;99676.28;4996606;28;20033;-69
2023/11/06 10:19:16;;;;;;;4.82;0.70;;;;;;;6.99;58.73;99675.44;4984971;28;20714;-68
2023/11/06 10:21:42;;;;;;;3.38;0.85;;;;;;;6.76;59.07;99673.84;5001575;28;20106;-69
2023/11/06 10:24:11;;;;;;;2.15;0.77;;;;;;;6.82;58.69;99674.44;5000236;28;20050;-69
2023/11/06 10:26:36;;;;;;;3.38;0.80;;;;;;;6.42;60.76;99681.31;4990551;28;20100;-69
2023/11/06 10:29:11;;;;;;;6.38;1.30;;;;;;;6.46;61.01;99693.25;5001073;28;20057;-69
2023/11/06 10:31:41;;;;;;;4.00;0.82;;;;;;;6.72;60.22;99693.06;4990549;28;20411;-67
2023/11/06 10:34:26;;;;;;;3.25;0.70;;;;;;;7.01;59.26;99684.00;5000093;28;20057;-68
2023/11/06 10:37:13;;;;;;;5.82;0.90;;;;;;;6.69;60.07;99688.84;5000715;28;20060;-67
2023/11/06 10:39:40;;;;;;;3.33;0.93;;;;;;;6.19;61.72;99695.19;4990741;28;20083;-69
2023/11/06 10:42:07;;;;;;;6.28;1.05;;;;;;;6.62;60.49;99702.97;4992927;28;20038;-67
2023/11/06 10:44:34;;;;;;;3.08;1.10;;;;;;;7.07;59.41;99694.97;4993988;28;20037;-66
2023/11/06 10:47:07;;;;;;;3.50;1.48;;;;;;;6.14;62.01;99697.13;4997545;28;20026;-69
2023/11/06 10:49:40;;;;;;;3.08;1.00;;;;;;;6.74;61.10;99715.47;4999356;28;20283;-66
2023/11/06 10:52:07;;;;;;;5.97;1.02;;;;;;;6.83;60.07;99715.06;4995597;28;20038;-67
2023/11/06 10:54:35;;;;;;;2.22;0.70;;;;;;;6.50;60.84;99705.19;4995803;28;20540;-69
2023/11/06 10:57:05;;;;;;;2.45;0.70;;;;;;;6.42;61.09;99703.84;4996311;28;20037;-67
2023/11/06 10:59:31;;;;;;;4.20;1.08;;;;;;;6.33;62.14;99712.84;4996194;28;20037;-70
2023/11/06 11:01:58;;;;;;;8.68;1.25;;;;;;;6.88;60.89;99705.31;4991950;28;20081;-68
2023/11/06 11:04:24;;;;;;;7.47;1.60;;;;;;;6.84;60.77;99711.56;4990213;28;20416;-66
2023/11/06 11:06:53;;;;;;;5.20;1.55;;;;;;;6.67;60.93;99707.09;4994387;28;20037;-68
2023/11/06 11:09:19;;;;;;;7.57;2.40;;;;;;;6.74;61.25;99702.47;4993016;28;20041;-69
2023/11/06 11:11:45;;;;;;;8.25;2.03;;;;;;;6.61;61.98;99711.69;4993860;28;20045;-67
2023/11/06 11:14:12;;;;;;;6.30;2.00;;;;;;;6.42;62.29;99712.47;4993560;28;20160;-67
2023/11/06 11:16:45;;;;;;;6.43;2.00;;;;;;;6.87;61.07;99726.19;4992405;28;21519;-66
2023/11/06 11:19:27;;;;;;;7.32;2.35;;;;;;;6.50;62.21;99718.16;4993533;28;20037;-69
2023/11/06 11:22:15;;;;;;;5.32;1.88;;;;;;;6.59;61.98;99721.28;4994608;28;20040;-66
2023/11/06 11:24:50;;;;;;;7.82;3.03;;;;;;;6.60;61.75;99723.00;4993989;28;20057;-67
2023/11/06 11:27:17;;;;;;;7.00;2.10;;;;;;;7.09;61.01;99723.50;4994387;28;20095;-67
2023/11/06 11:29:56;;;;;;;7.50;2.17;;;;;;;6.95;61.08;99725.81;4995199;28;20037;-67
2023/11/06 11:32:27;;;;;;;7.03;2.05;;;;;;;7.03;60.40;99715.97;4986307;28;20041;-67
2023/11/06 11:34:57;;;;;;;8.82;2.40;;;;;;;6.61;61.97;99727.28;4998340;28;20504;-68
2023/11/06 11:37:29;;;;;;;7.70;1.85;;;;;;;7.66;60.31;99731.38;4999255;28;20041;-66
2023/11/06 11:39:59;;;;;;;8.75;1.77;;;;;;;8.20;58.43;99719.25;5004118;28;20026;-66